createdAt,value
2019-01-15T00:00:47.215Z,4.17
2019-01-15T00:03:16.661Z,3.97
2019-01-15T00:05:46.154Z,3.43
2019-01-15T00:08:15.619Z,3.93
2019-01-15T00:10:45.111Z,4.43
2019-01-15T00:13:14.613Z,4.03
2019-01-15T00:15:44.064Z,4.13
2019-01-15T00:18:13.513Z,4.00
2019-01-15T00:20:42.980Z,3.87
2019-01-15T00:23:12.442Z,4.00
2019-01-15T00:25:41.900Z,4.73
2019-01-15T00:28:11.351Z,3.90
2019-01-15T00:30:40.916Z,3.27
2019-01-15T00:33:10.402Z,3.93
2019-01-15T00:35:39.891Z,3.20
2019-01-15T00:38:09.409Z,4.23
2019-01-15T00:40:38.861Z,3.43
2019-01-15T00:43:08.308Z,3.00
2019-01-15T00:45:37.797Z,3.93
2019-01-15T00:48:07.306Z,2.60
2019-01-15T00:50:36.840Z,4.10
2019-01-15T00:53:06.530Z,3.57
2019-01-15T00:55:36.019Z,3.40
2019-01-15T00:58:05.473Z,3.10
2019-01-15T01:00:34.992Z,3.10
2019-01-15T01:03:04.755Z,3.00
2019-01-15T01:05:34.281Z,3.77
2019-01-15T01:08:04.415Z,2.97
2019-01-15T01:10:33.917Z,3.90
2019-01-15T01:13:03.600Z,3.07
2019-01-15T01:15:33.161Z,3.07
2019-01-15T01:18:02.637Z,3.00
2019-01-15T01:20:33.232Z,4.00
2019-01-15T01:23:02.890Z,2.97
2019-01-15T01:25:32.347Z,3.93
2019-01-15T01:28:01.834Z,2.93
2019-01-15T01:30:31.285Z,4.23
2019-01-15T01:33:00.783Z,3.97
2019-01-15T01:35:30.234Z,3.03
2019-01-15T01:37:59.674Z,3.10
2019-01-15T01:40:29.162Z,2.70
2019-01-15T01:42:58.621Z,2.40
2019-01-15T01:45:28.147Z,3.00
2019-01-15T01:47:57.608Z,3.00
2019-01-15T01:50:27.658Z,2.90
2019-01-15T01:52:57.233Z,4.23
2019-01-15T01:55:26.778Z,2.83
2019-01-15T01:57:56.221Z,4.10
2019-01-15T02:00:25.680Z,3.33
2019-01-15T02:02:55.166Z,4.40
2019-01-15T02:05:24.604Z,2.83
2019-01-15T02:07:54.088Z,2.80
2019-01-15T02:10:23.554Z,3.10
2019-01-15T02:12:53.036Z,2.37
2019-01-15T02:15:23.226Z,3.00
2019-01-15T02:17:52.840Z,3.57
2019-01-15T02:20:22.446Z,3.30
2019-01-15T02:22:52.006Z,3.10
2019-01-15T02:25:21.468Z,3.90
2019-01-15T02:27:51.047Z,3.10
2019-01-15T02:30:23.715Z,3.23
2019-01-15T02:32:53.217Z,3.17
2019-01-15T02:35:22.650Z,3.10
2019-01-15T02:37:52.156Z,2.60
2019-01-15T02:40:21.731Z,3.53
2019-01-15T02:42:51.352Z,5.10
2019-01-15T02:45:21.691Z,3.17
2019-01-15T02:47:51.204Z,4.53
2019-01-15T02:50:21.866Z,3.47
2019-01-15T02:52:51.351Z,3.50
2019-01-15T02:55:20.822Z,3.30
2019-01-15T02:57:50.305Z,3.20
2019-01-15T03:00:22.665Z,3.40
2019-01-15T03:02:52.305Z,3.43
2019-01-15T03:05:21.993Z,3.20
2019-01-15T03:07:51.545Z,3.17
2019-01-15T03:10:22.500Z,5.63
2019-01-15T03:12:56.831Z,2.80
2019-01-15T03:15:24.558Z,4.07
2019-01-15T03:17:54.056Z,2.90
2019-01-15T03:20:23.607Z,3.00
2019-01-15T03:22:53.130Z,2.57
2019-01-15T03:25:22.609Z,2.67
2019-01-15T03:27:54.145Z,2.50
2019-01-15T03:30:24.833Z,3.67
2019-01-15T03:32:54.375Z,3.97
2019-01-15T03:35:23.922Z,3.50
2019-01-15T03:37:53.538Z,2.93
2019-01-15T03:40:25.187Z,3.00
2019-01-15T03:43:02.930Z,3.13
2019-01-15T03:45:25.981Z,2.80
2019-01-15T03:47:55.481Z,3.90
2019-01-15T03:50:24.900Z,3.53
2019-01-15T03:52:54.492Z,3.63
2019-01-15T03:55:24.061Z,3.73
2019-01-15T03:57:53.588Z,3.63
2019-01-15T04:00:24.152Z,3.90
2019-01-15T04:02:54.585Z,3.33
2019-01-15T04:05:24.123Z,2.60
2019-01-15T04:07:55.251Z,3.50
2019-01-15T04:10:24.944Z,3.70
2019-01-15T04:12:54.529Z,3.73
2019-01-15T04:15:24.190Z,2.70
2019-01-15T04:17:53.641Z,3.07
2019-01-15T04:20:23.134Z,3.10
2019-01-15T04:22:52.617Z,5.10
2019-01-15T04:25:22.244Z,3.17
2019-01-15T04:27:51.728Z,3.20
2019-01-15T04:30:22.603Z,3.87
2019-01-15T04:32:52.156Z,3.70
2019-01-15T04:35:21.605Z,5.27
2019-01-15T04:37:51.167Z,4.83
2019-01-15T04:40:21.581Z,4.50
2019-01-15T04:42:51.121Z,5.10
2019-01-15T04:45:21.871Z,4.77
2019-01-15T04:47:51.601Z,7.23
2019-01-15T04:50:21.138Z,5.30
2019-01-15T04:52:53.654Z,4.07
2019-01-15T04:55:23.144Z,4.07
2019-01-15T04:57:52.591Z,4.63
2019-01-15T05:00:23.393Z,4.10
2019-01-15T05:02:53.643Z,4.03
2019-01-15T05:05:23.086Z,5.20
2019-01-15T05:07:52.528Z,6.00
2019-01-15T05:10:21.988Z,5.87
2019-01-15T05:12:51.474Z,4.20
2019-01-15T05:15:21.160Z,8.37
2019-01-15T05:17:50.728Z,6.13
2019-01-15T05:20:20.739Z,5.97
2019-01-15T05:22:50.202Z,6.47
2019-01-15T05:25:22.261Z,5.90
2019-01-15T05:27:51.718Z,4.60
2019-01-15T05:30:27.280Z,6.20
2019-01-15T05:32:56.799Z,5.10
2019-01-15T05:35:26.235Z,6.20
2019-01-15T05:37:55.715Z,4.17
2019-01-15T05:40:25.234Z,4.83
2019-01-15T05:42:54.780Z,3.13
2019-01-15T05:45:32.115Z,5.47
2019-01-15T05:48:03.315Z,5.77
2019-01-15T05:50:46.658Z,3.90
2019-01-15T05:53:16.319Z,4.97
2019-01-15T05:55:45.772Z,4.00
2019-01-15T05:58:15.241Z,5.43
2019-01-15T06:00:44.719Z,4.10
2019-01-15T06:03:14.210Z,4.80
2019-01-15T06:05:43.635Z,4.33
2019-01-15T06:08:13.120Z,3.67
2019-01-15T06:10:42.606Z,5.40
2019-01-15T06:13:12.054Z,4.63
2019-01-15T06:15:41.540Z,3.03
2019-01-15T06:18:11.050Z,4.43
2019-01-15T06:20:40.496Z,4.93
2019-01-15T06:23:09.974Z,4.37
2019-01-15T06:25:39.451Z,5.00
2019-01-15T06:28:08.950Z,5.17
2019-01-15T06:30:38.408Z,5.63
2019-01-15T06:33:07.921Z,5.33
2019-01-15T06:35:37.480Z,5.33
2019-01-15T06:38:06.996Z,4.70
2019-01-15T06:40:36.675Z,4.37
2019-01-15T06:43:06.220Z,4.20
2019-01-15T06:45:35.786Z,4.90
2019-01-15T06:48:05.573Z,5.60
2019-01-15T06:50:35.036Z,4.93
2019-01-15T06:53:04.661Z,5.33
2019-01-15T06:55:34.113Z,4.07
2019-01-15T06:58:03.669Z,5.67
2019-01-15T07:00:33.390Z,4.73
2019-01-15T07:03:02.942Z,4.80
2019-01-15T07:05:32.397Z,4.60
2019-01-15T07:08:01.874Z,4.53
2019-01-15T07:10:35.337Z,7.03
2019-01-15T07:13:05.153Z,8.57
2019-01-15T07:15:34.819Z,6.03
2019-01-15T07:18:04.508Z,7.03
2019-01-15T07:20:33.981Z,7.70
2019-01-15T07:23:03.426Z,6.80
2019-01-15T07:25:32.982Z,8.83
2019-01-15T07:28:02.608Z,5.90
2019-01-15T07:30:39.618Z,5.10
2019-01-15T07:33:09.209Z,5.27
2019-01-15T07:35:38.684Z,5.87
2019-01-15T07:38:08.305Z,4.70
2019-01-15T07:40:37.848Z,6.03
2019-01-15T07:43:07.327Z,5.90
2019-01-15T07:45:36.951Z,6.10
2019-01-15T07:48:06.696Z,6.37
2019-01-15T07:50:36.177Z,6.33
2019-01-15T07:53:06.643Z,6.80
2019-01-15T07:55:36.082Z,6.27
2019-01-15T07:58:05.787Z,7.00
2019-01-15T08:00:35.303Z,8.50
2019-01-15T08:03:05.251Z,8.27
2019-01-15T08:05:34.771Z,8.57
2019-01-15T08:08:04.650Z,11.43
2019-01-15T08:10:34.897Z,6.83
2019-01-15T08:13:04.580Z,8.07
2019-01-15T08:15:34.064Z,10.10
2019-01-15T08:18:03.618Z,8.87
2019-01-15T08:20:33.064Z,8.43
2019-01-15T08:23:02.541Z,9.70
2019-01-15T08:25:31.985Z,10.10
2019-01-15T08:28:01.509Z,11.70
2019-01-15T08:30:36.710Z,14.57
2019-01-15T08:33:06.535Z,10.43
2019-01-15T08:35:36.061Z,10.70
2019-01-15T08:38:06.042Z,11.07
2019-01-15T08:40:35.513Z,9.73
2019-01-15T08:43:05.132Z,12.67
2019-01-15T08:45:34.616Z,11.73
2019-01-15T08:48:05.879Z,13.87
2019-01-15T08:50:35.516Z,12.23
2019-01-15T08:53:05.249Z,17.30
2019-01-15T08:55:34.885Z,6.83
2019-01-15T08:58:04.536Z,13.37
2019-01-15T09:00:34.096Z,11.67
2019-01-15T09:03:03.622Z,12.40
2019-01-15T09:05:33.135Z,11.73
2019-01-15T09:08:02.582Z,8.77
2019-01-15T09:10:32.035Z,11.30
2019-01-15T09:13:01.600Z,8.43
2019-01-15T09:15:31.054Z,10.93
2019-01-15T09:18:00.503Z,9.43
2019-01-15T09:20:30.068Z,7.23
2019-01-15T09:22:59.657Z,9.00
2019-01-15T09:25:29.104Z,7.40
2019-01-15T09:27:58.915Z,8.87
2019-01-15T09:30:28.354Z,9.23
2019-01-15T09:32:57.805Z,8.70
2019-01-15T09:35:27.309Z,12.23
2019-01-15T09:37:57.028Z,11.50
2019-01-15T09:40:26.548Z,12.43
2019-01-15T09:42:56.045Z,10.93
2019-01-15T09:45:25.568Z,10.43
2019-01-15T09:47:56.651Z,9.67
2019-01-15T09:50:26.145Z,11.47
2019-01-15T09:52:55.669Z,8.53
2019-01-15T09:55:25.197Z,10.10
2019-01-15T09:57:54.674Z,9.37
2019-01-15T10:00:24.163Z,8.40
2019-01-15T10:02:53.850Z,7.50
2019-01-15T10:05:23.343Z,7.43
2019-01-15T10:07:52.799Z,5.73
2019-01-15T10:10:22.357Z,6.63
2019-01-15T10:12:51.801Z,7.70
2019-01-15T10:15:22.479Z,6.80
2019-01-15T10:17:51.958Z,6.63
2019-01-15T10:20:21.669Z,6.87
2019-01-15T10:22:51.255Z,6.80
2019-01-15T10:25:22.443Z,6.73
2019-01-15T10:27:53.114Z,9.50
2019-01-15T10:30:38.522Z,8.63
2019-01-15T10:33:15.313Z,7.63
2019-01-15T10:35:52.845Z,7.87
2019-01-15T10:38:25.004Z,7.43
2019-01-15T10:40:56.202Z,7.00
2019-01-15T10:43:26.865Z,8.33
2019-01-15T10:45:56.808Z,10.03
2019-01-15T10:48:26.308Z,6.97
2019-01-15T10:50:55.886Z,6.00
2019-01-15T10:53:26.287Z,8.87
2019-01-15T10:55:55.795Z,5.90
2019-01-15T10:58:25.253Z,7.00
2019-01-15T11:00:54.763Z,6.90
2019-01-15T11:03:24.272Z,7.07
2019-01-15T11:05:54.028Z,8.23
2019-01-15T11:08:23.523Z,8.73
2019-01-15T11:10:52.961Z,8.70
2019-01-15T11:13:22.404Z,7.53
2019-01-15T11:15:51.964Z,7.70
2019-01-15T11:18:21.410Z,7.60
2019-01-15T11:20:50.854Z,7.80
2019-01-15T11:23:20.343Z,7.60
2019-01-15T11:25:49.796Z,8.10
2019-01-15T11:28:19.246Z,8.93
2019-01-15T11:30:48.736Z,9.27
2019-01-15T11:33:18.184Z,9.50
2019-01-15T11:35:47.628Z,8.03
2019-01-15T11:38:17.116Z,7.00
2019-01-15T11:40:46.555Z,9.13
2019-01-15T11:43:15.995Z,8.47
2019-01-15T11:45:45.561Z,8.17
2019-01-15T11:48:15.016Z,8.67
2019-01-15T11:50:44.464Z,10.57
2019-01-15T11:53:13.964Z,10.60
2019-01-15T11:55:43.477Z,8.10
2019-01-15T11:58:12.920Z,8.90
2019-01-15T12:00:56.038Z,9.27
2019-01-15T12:03:29.553Z,7.57
2019-01-15T12:06:06.892Z,8.27
2019-01-15T12:08:43.848Z,7.33
2019-01-15T12:11:20.748Z,8.53
2019-01-15T12:13:51.839Z,9.10
2019-01-15T12:16:39.657Z,9.33
2019-01-15T12:19:27.508Z,8.13
2019-01-15T12:21:58.636Z,8.63
2019-01-15T12:24:32.544Z,7.13
2019-01-15T12:27:09.583Z,6.03
2019-01-15T12:29:40.674Z,5.57
2019-01-15T12:32:14.513Z,5.43
2019-01-15T12:34:48.512Z,6.30
2019-01-15T12:37:36.182Z,5.43
2019-01-15T12:40:14.018Z,7.77
2019-01-15T12:42:45.154Z,5.73
2019-01-15T12:45:35.895Z,7.13
2019-01-15T12:48:07.277Z,5.93
2019-01-15T12:50:41.275Z,5.60
2019-01-15T12:53:15.139Z,7.03
2019-01-15T12:55:48.970Z,6.83
2019-01-15T12:58:20.103Z,6.57
2019-01-15T13:01:06.303Z,5.77
2019-01-15T13:03:43.283Z,5.50
2019-01-15T13:06:26.802Z,6.43
2019-01-15T13:08:57.939Z,7.33
2019-01-15T13:11:41.053Z,10.37
2019-01-15T13:14:24.275Z,7.50
2019-01-15T13:16:58.074Z,8.80
2019-01-15T13:19:31.855Z,8.03
2019-01-15T13:22:05.777Z,8.50
2019-01-15T13:24:39.799Z,8.13
2019-01-15T13:27:27.130Z,9.37
2019-01-15T13:29:58.277Z,9.13
2019-01-15T13:32:38.264Z,6.53
2019-01-15T13:35:22.297Z,8.87
2019-01-15T13:37:59.034Z,7.27
2019-01-15T13:40:33.081Z,8.57
2019-01-15T13:43:06.885Z,9.33
2019-01-15T13:45:41.949Z,14.80
2019-01-15T13:48:27.177Z,9.47
2019-01-15T13:51:10.086Z,9.57
2019-01-15T13:53:53.398Z,10.23
2019-01-15T13:56:27.694Z,9.70
2019-01-15T13:59:15.315Z,11.83
2019-01-15T14:01:55.402Z,11.53
2019-01-15T14:04:29.243Z,10.50
2019-01-15T14:07:18.485Z,15.07
2019-01-15T14:09:49.748Z,12.87
2019-01-15T14:12:37.353Z,14.43
2019-01-15T14:15:11.872Z,14.90
2019-01-15T14:17:58.901Z,15.80
2019-01-15T14:20:42.232Z,12.70
2019-01-15T14:23:19.728Z,15.00
2019-01-15T14:25:53.691Z,14.00
2019-01-15T14:28:34.104Z,13.80
2019-01-15T14:31:11.295Z,14.17
2019-01-15T14:33:50.967Z,12.70
2019-01-15T14:36:22.057Z,14.80
2019-01-15T14:38:56.210Z,12.03
2019-01-15T14:41:42.519Z,13.83
2019-01-15T14:44:31.871Z,10.67
2019-01-15T14:47:05.937Z,11.77
2019-01-15T14:49:53.346Z,12.63
2019-01-15T14:52:36.168Z,11.13
2019-01-15T14:55:26.042Z,13.87
2019-01-15T14:58:02.955Z,11.63
2019-01-15T15:00:42.917Z,10.90
2019-01-15T15:03:25.958Z,11.43
2019-01-15T15:06:09.026Z,11.60
2019-01-15T15:08:42.802Z,11.93
2019-01-15T15:11:29.283Z,8.40
2019-01-15T15:14:00.374Z,8.93
2019-01-15T15:16:34.199Z,11.13
2019-01-15T15:19:05.365Z,11.70
2019-01-15T15:21:36.474Z,10.60
2019-01-15T15:24:22.696Z,11.40
2019-01-15T15:26:59.335Z,10.13
2019-01-15T15:29:45.753Z,11.60
2019-01-15T15:32:16.858Z,11.00
2019-01-15T15:34:54.083Z,10.70
2019-01-15T15:37:25.179Z,10.27
2019-01-15T15:40:01.974Z,9.90
2019-01-15T15:42:51.243Z,10.47
2019-01-15T15:45:31.480Z,12.80
2019-01-15T15:48:11.525Z,10.27
2019-01-15T15:50:57.680Z,11.30
2019-01-15T15:53:43.910Z,12.97
2019-01-15T15:56:17.726Z,12.40
2019-01-15T15:58:51.897Z,9.93
2019-01-15T16:01:23.020Z,11.77
2019-01-15T16:04:10.133Z,10.40
2019-01-15T16:06:41.284Z,9.63
2019-01-15T16:09:18.540Z,11.20
2019-01-15T16:11:49.725Z,10.87
2019-01-15T16:14:32.874Z,10.50
2019-01-15T16:17:12.793Z,8.20
2019-01-15T16:19:46.837Z,12.30
2019-01-15T16:22:36.094Z,12.87
2019-01-15T16:25:10.886Z,11.00
2019-01-15T16:27:58.379Z,15.10
2019-01-15T16:30:29.478Z,12.03
2019-01-15T16:33:00.586Z,12.17
2019-01-15T16:35:37.277Z,13.93
2019-01-15T16:38:24.949Z,13.73
2019-01-15T16:41:12.517Z,12.27
2019-01-15T16:43:52.305Z,12.60
2019-01-15T16:46:35.381Z,12.37
2019-01-15T16:49:21.579Z,11.60
2019-01-15T16:52:10.934Z,12.50
2019-01-15T16:54:44.712Z,13.53
2019-01-15T16:57:18.339Z,13.20
2019-01-15T16:59:49.460Z,18.07
2019-01-15T17:02:32.316Z,16.30
2019-01-15T17:05:06.122Z,14.80
2019-01-15T17:07:37.259Z,15.17
2019-01-15T17:10:22.021Z,11.27
2019-01-15T17:12:53.141Z,13.47
2019-01-15T17:15:26.968Z,13.30
2019-01-15T17:18:01.049Z,14.33
2019-01-15T17:20:44.263Z,14.50
2019-01-15T17:23:18.060Z,13.37
2019-01-15T17:25:49.817Z,12.73
2019-01-15T17:28:20.957Z,12.97
2019-01-15T17:31:00.944Z,14.93
2019-01-15T17:33:32.075Z,13.10
2019-01-15T17:36:09.199Z,12.23
2019-01-15T17:38:55.433Z,16.40
2019-01-15T17:41:32.157Z,13.00
2019-01-15T17:44:18.641Z,17.10
2019-01-15T17:47:05.757Z,13.17
2019-01-15T17:49:51.586Z,12.70
2019-01-15T17:52:43.589Z,12.30
2019-01-15T17:55:17.823Z,9.90
2019-01-15T17:57:48.940Z,14.13
2019-01-15T18:00:20.140Z,10.23
2019-01-15T18:02:51.266Z,11.50
2019-01-15T18:05:28.218Z,9.97
2019-01-15T18:08:02.153Z,9.43
2019-01-15T18:10:49.936Z,11.90
2019-01-15T18:13:26.897Z,13.87
2019-01-15T18:15:57.996Z,10.77
2019-01-15T18:18:34.798Z,10.23
2019-01-15T18:21:11.759Z,10.50
2019-01-15T18:23:48.393Z,12.43
2019-01-15T18:26:35.913Z,12.00
2019-01-15T18:29:13.005Z,10.93
2019-01-15T18:31:53.118Z,10.90
2019-01-15T18:34:26.740Z,12.00
2019-01-15T18:37:10.295Z,11.93
2019-01-15T18:39:41.444Z,12.63
2019-01-15T18:42:21.679Z,10.40
2019-01-15T18:44:58.952Z,10.80
2019-01-15T18:47:48.962Z,12.53
2019-01-15T18:50:20.100Z,12.03
2019-01-15T18:52:56.623Z,11.17
2019-01-15T18:55:30.660Z,11.23
2019-01-15T18:58:01.775Z,9.90
2019-01-15T19:00:36.166Z,11.47
2019-01-15T19:03:10.496Z,12.93
2019-01-15T19:05:59.752Z,11.10
2019-01-15T19:08:33.834Z,13.80
2019-01-15T19:11:19.941Z,16.23
2019-01-15T19:14:03.118Z,14.07
2019-01-15T19:16:40.012Z,14.50
2019-01-15T19:19:23.162Z,15.00
2019-01-15T19:21:57.172Z,15.40
2019-01-15T19:24:43.769Z,16.70
2019-01-15T19:27:14.876Z,15.50
2019-01-15T19:29:45.974Z,16.37
2019-01-15T19:32:18.841Z,17.47
2019-01-15T19:35:06.143Z,13.00
2019-01-15T19:37:42.985Z,16.30
2019-01-15T19:40:14.238Z,13.93
2019-01-15T19:42:45.335Z,14.20
2019-01-15T19:45:22.573Z,14.93
2019-01-15T19:47:59.606Z,13.13
2019-01-15T19:50:42.013Z,23.70
2019-01-15T19:53:24.889Z,15.27
2019-01-15T19:56:12.425Z,14.53
2019-01-15T19:58:43.530Z,14.90
2019-01-15T20:01:20.513Z,14.47
2019-01-15T20:03:57.242Z,16.10
2019-01-15T20:06:28.398Z,15.73
2019-01-15T20:09:15.916Z,15.77
2019-01-15T20:11:53.031Z,15.53
2019-01-15T20:14:26.893Z,14.53
2019-01-15T20:17:18.432Z,15.17
2019-01-15T20:19:57.644Z,14.20
2019-01-15T20:22:34.572Z,13.40
2019-01-15T20:25:09.274Z,13.60
2019-01-15T20:27:40.560Z,15.30
2019-01-15T20:30:13.967Z,13.53
2019-01-15T20:32:48.661Z,14.97
2019-01-15T20:35:22.819Z,14.97
2019-01-15T20:37:59.888Z,15.07
2019-01-15T20:40:39.759Z,15.20
2019-01-15T20:43:10.975Z,17.30
2019-01-15T20:45:48.247Z,17.30
2019-01-15T20:48:19.383Z,14.60
2019-01-15T20:50:50.485Z,17.93
2019-01-15T20:53:33.398Z,17.10
2019-01-15T20:56:04.486Z,16.57
2019-01-15T20:58:42.915Z,19.53
2019-01-15T21:01:23.060Z,20.03
2019-01-15T21:04:00.157Z,18.30
2019-01-15T21:06:38.115Z,18.13
2019-01-15T21:09:10.686Z,15.40
2019-01-15T21:12:00.149Z,17.53
2019-01-15T21:14:34.232Z,18.30
2019-01-15T21:17:21.627Z,17.60
2019-01-15T21:19:52.777Z,16.20
2019-01-15T21:22:39.317Z,14.60
2019-01-15T21:25:19.434Z,15.70
2019-01-15T21:27:59.597Z,15.17
2019-01-15T21:30:30.740Z,15.37
2019-01-15T21:33:07.849Z,14.90
2019-01-15T21:35:55.373Z,17.40
2019-01-15T21:38:42.510Z,14.57
2019-01-15T21:41:25.600Z,15.60
2019-01-15T21:43:56.791Z,16.03
2019-01-15T21:46:27.918Z,17.23
2019-01-15T21:49:08.388Z,15.40
2019-01-15T21:51:58.027Z,15.77
2019-01-15T21:54:32.380Z,16.20
2019-01-15T21:57:03.584Z,14.17
2019-01-15T21:59:43.350Z,13.90
2019-01-15T22:02:14.486Z,15.20
2019-01-15T22:05:00.966Z,14.50
2019-01-15T22:07:35.101Z,13.77
2019-01-15T22:10:25.887Z,14.30
2019-01-15T22:12:59.952Z,13.10
2019-01-15T22:15:36.982Z,15.53
2019-01-15T22:18:11.094Z,12.53
2019-01-15T22:20:44.995Z,13.80
2019-01-15T22:23:16.147Z,12.60
2019-01-15T22:25:56.373Z,11.77
2019-01-15T22:28:27.542Z,12.30
2019-01-15T22:31:12.980Z,11.77
2019-01-15T22:33:46.557Z,12.63
2019-01-15T22:36:17.713Z,14.43
2019-01-15T22:39:05.011Z,15.67
2019-01-15T22:41:54.254Z,14.60
2019-01-15T22:44:31.339Z,11.97
2019-01-15T22:47:08.723Z,13.90
2019-01-15T22:49:42.560Z,12.17
2019-01-15T22:52:13.712Z,12.03
2019-01-15T22:54:47.886Z,11.80
2019-01-15T22:57:37.562Z,11.87
2019-01-15T23:00:32.197Z,12.33
2019-01-15T23:03:05.934Z,12.30
2019-01-15T23:05:55.331Z,11.43
2019-01-15T23:08:35.482Z,11.90
2019-01-15T23:11:23.240Z,14.30
2019-01-15T23:13:54.401Z,12.70
2019-01-15T23:16:28.532Z,12.90
2019-01-15T23:19:15.033Z,12.87
2019-01-15T23:21:46.138Z,13.63
2019-01-15T23:24:35.110Z,11.97
2019-01-15T23:27:06.363Z,13.47
2019-01-15T23:29:46.197Z,13.50
2019-01-15T23:32:26.323Z,12.30
2019-01-15T23:35:03.506Z,13.33
2019-01-15T23:37:34.648Z,12.20
2019-01-15T23:40:07.568Z,12.07
2019-01-15T23:42:55.127Z,12.27
2019-01-15T23:45:26.237Z,12.30
2019-01-15T23:48:09.687Z,11.50
2019-01-15T23:50:36.315Z,11.40
2019-01-15T23:53:13.772Z,10.27
2019-01-15T23:55:44.888Z,12.93
2019-01-15T23:58:16.007Z,12.17
